Time;durP1;ratioP1;P1;durP2;ratioP2;P2;SDS_P1;SDS_P2;PMS_P1;PMS_P2;Temp;Humidity;BMP_temperature;BMP_pressure;BME280_temperature;BME280_humidity;BME280_pressure;Samples;Min_cycle;Max_cycle;Signal;HPM_P1;HPM_P2
2023/08/19 00:01:12;;;;;;;5.38;2.67;;;;;;;;;;5026198;28;20110;-58
2023/08/19 00:03:38;;;;;;;4.93;2.80;;;;;;;;;;5026922;28;20056;-58
2023/08/19 00:06:04;;;;;;;6.77;2.53;;;;;;;;;;5009929;28;20037;-58
2023/08/19 00:08:29;;;;;;;5.93;2.70;;;;;;;;;;5015936;28;20291;-59
2023/08/19 00:10:55;;;;;;;4.40;2.60;;;;;;;;;;5047584;28;20068;-59
2023/08/19 00:13:20;;;;;;;3.55;2.08;;;;;;;;;;5032854;28;20276;-58
2023/08/19 00:15:45;;;;;;;4.07;2.30;;;;;;;;;;5009964;28;20052;-59
2023/08/19 00:18:10;;;;;;;5.87;2.93;;;;;;;;;;5030050;28;20037;-59
2023/08/19 00:20:36;;;;;;;6.23;2.30;;;;;;;;;;5027718;28;20034;-60
2023/08/19 00:23:01;;;;;;;4.35;2.45;;;;;;;;;;5037670;28;20040;-58
2023/08/19 00:25:27;;;;;;;3.47;2.20;;;;;;;;;;5047148;28;20115;-59
2023/08/19 00:27:52;;;;;;;4.88;2.00;;;;;;;;;;5037400;28;20048;-60
2023/08/19 00:30:17;;;;;;;5.65;2.38;;;;;;;;;;5009065;28;20128;-59
2023/08/19 00:32:42;;;;;;;6.55;2.08;;;;;;;;;;5032839;28;20036;-59
2023/08/19 00:35:08;;;;;;;3.60;2.13;;;;;;;;;;5039014;28;20506;-59
2023/08/19 00:37:35;;;;;;;4.95;2.50;;;;;;;;;;5027001;28;20302;-59
2023/08/19 00:40:00;;;;;;;4.30;2.53;;;;;;;;;;5044556;28;20514;-58
2023/08/19 00:42:26;;;;;;;3.00;2.03;;;;;;;;;;5042571;28;20132;-59
2023/08/19 00:44:51;;;;;;;4.77;2.27;;;;;;;;;;5026500;28;20797;-59
2023/08/19 00:47:16;;;;;;;5.57;2.00;;;;;;;;;;5033247;28;20488;-59
2023/08/19 00:49:41;;;;;;;6.67;2.40;;;;;;;;;;5039451;28;20284;-59
2023/08/19 00:52:07;;;;;;;3.85;2.28;;;;;;;;;;5024987;28;20112;-59
2023/08/19 00:54:32;;;;;;;4.60;2.05;;;;;;;;;;5026609;28;20136;-58
2023/08/19 00:56:57;;;;;;;4.28;2.60;;;;;;;;;;5008852;28;20116;-58
2023/08/19 00:59:23;;;;;;;6.67;2.20;;;;;;;;;;5038584;28;20051;-60
2023/08/19 01:01:48;;;;;;;5.27;2.20;;;;;;;;;;5045986;28;20045;-63
2023/08/19 01:04:13;;;;;;;3.73;2.20;;;;;;;;;;5029068;28;20033;-58
2023/08/19 01:06:43;;;;;;;6.13;2.63;;;;;;;;;;5024362;28;20288;-58
2023/08/19 01:09:11;;;;;;;3.83;2.30;;;;;;;;;;5026543;28;20129;-58
2023/08/19 01:11:46;;;;;;;6.20;2.60;;;;;;;;;;5026123;28;20087;-58
2023/08/19 01:14:34;;;;;;;3.38;2.10;;;;;;;;;;5005713;28;20065;-58
2023/08/19 01:17:01;;;;;;;5.80;2.67;;;;;;;;;;5032751;28;20037;-58
2023/08/19 01:19:30;;;;;;;3.10;2.10;;;;;;;;;;5041170;28;20037;-59
2023/08/19 01:21:58;;;;;;;4.20;2.35;;;;;;;;;;5041928;28;20052;-59
2023/08/19 01:24:24;;;;;;;5.22;2.47;;;;;;;;;;5040626;28;20492;-58
2023/08/19 01:26:49;;;;;;;5.13;2.50;;;;;;;;;;5008071;28;20025;-59
2023/08/19 01:29:14;;;;;;;5.47;2.40;;;;;;;;;;5008303;28;20744;-58
2023/08/19 01:31:39;;;;;;;4.67;2.57;;;;;;;;;;5026500;28;20325;-59
2023/08/19 01:34:04;;;;;;;3.97;2.63;;;;;;;;;;5036414;28;20361;-59
2023/08/19 01:36:34;;;;;;;5.33;2.27;;;;;;;;;;5026498;28;20041;-59
2023/08/19 01:39:00;;;;;;;3.83;2.30;;;;;;;;;;5010187;28;20095;-59
2023/08/19 01:41:26;;;;;;;5.00;2.65;;;;;;;;;;5024795;28;20044;-58
2023/08/19 01:43:52;;;;;;;6.82;2.58;;;;;;;;;;5025469;28;20033;-59
2023/08/19 01:46:17;;;;;;;6.03;2.90;;;;;;;;;;5007860;28;20086;-59
2023/08/19 01:48:42;;;;;;;6.22;2.55;;;;;;;;;;5039530;28;21028;-58
2023/08/19 01:51:08;;;;;;;5.47;2.60;;;;;;;;;;5044943;28;20028;-58
2023/08/19 01:53:33;;;;;;;4.53;2.60;;;;;;;;;;5037371;28;20131;-58
2023/08/19 01:55:58;;;;;;;5.23;2.40;;;;;;;;;;5023669;28;20319;-59
2023/08/19 01:58:23;;;;;;;4.07;2.80;;;;;;;;;;5027883;28;20691;-59
2023/08/19 02:00:48;;;;;;;5.03;2.60;;;;;;;;;;5042137;28;20084;-57
2023/08/19 02:03:14;;;;;;;6.30;2.63;;;;;;;;;;5026913;28;20037;-57
2023/08/19 02:05:39;;;;;;;4.93;2.93;;;;;;;;;;5025024;28;20025;-60
2023/08/19 02:08:04;;;;;;;5.20;2.33;;;;;;;;;;5025262;28;20040;-60
2023/08/19 02:10:31;;;;;;;7.18;3.35;;;;;;;;;;5027128;28;20048;-59
2023/08/19 02:12:56;;;;;;;5.07;2.97;;;;;;;;;;5026909;28;20044;-60
2023/08/19 02:15:21;;;;;;;5.47;2.70;;;;;;;;;;5023339;28;20103;-58
2023/08/19 02:17:46;;;;;;;4.30;2.90;;;;;;;;;;5015622;28;20037;-59
2023/08/19 02:20:12;;;;;;;6.93;2.90;;;;;;;;;;5028352;28;20095;-61
2023/08/19 02:22:38;;;;;;;5.47;2.67;;;;;;;;;;5024617;28;20030;-59
2023/08/19 02:25:03;;;;;;;5.65;2.70;;;;;;;;;;5024551;28;20426;-60
2023/08/19 02:27:30;;;;;;;5.50;2.83;;;;;;;;;;5024631;28;20052;-60
2023/08/19 02:29:56;;;;;;;7.43;2.53;;;;;;;;;;5025539;28;20118;-59
2023/08/19 02:32:21;;;;;;;5.00;2.70;;;;;;;;;;5024756;28;20575;-59
2023/08/19 02:34:46;;;;;;;5.95;2.80;;;;;;;;;;5023839;28;20529;-60
2023/08/19 02:37:13;;;;;;;5.20;2.80;;;;;;;;;;5006643;28;20566;-59
2023/08/19 02:39:39;;;;;;;4.97;2.80;;;;;;;;;;5038967;28;20091;-58
2023/08/19 02:42:04;;;;;;;4.40;2.20;;;;;;;;;;5044216;28;20025;-58
2023/08/19 02:44:29;;;;;;;5.15;2.65;;;;;;;;;;5034517;28;20283;-58
2023/08/19 02:46:54;;;;;;;4.00;2.70;;;;;;;;;;5022519;28;20029;-58
2023/08/19 02:49:19;;;;;;;4.93;2.70;;;;;;;;;;5032967;28;20033;-58
2023/08/19 02:51:45;;;;;;;5.00;2.93;;;;;;;;;;5024549;28;20146;-56
2023/08/19 02:54:11;;;;;;;4.03;2.83;;;;;;;;;;5006535;28;20057;-58
2023/08/19 02:56:36;;;;;;;6.68;2.88;;;;;;;;;;5035429;28;20279;-58
2023/08/19 02:59:02;;;;;;;5.13;2.83;;;;;;;;;;5024665;28;20035;-57
2023/08/19 03:01:27;;;;;;;5.63;2.77;;;;;;;;;;5036126;28;20132;-58
2023/08/19 03:03:52;;;;;;;5.07;2.78;;;;;;;;;;5026464;28;20535;-58
2023/08/19 03:06:18;;;;;;;4.20;2.47;;;;;;;;;;5010071;28;20516;-58
2023/08/19 03:08:43;;;;;;;5.87;3.03;;;;;;;;;;5000221;28;20924;-58
2023/08/19 03:11:08;;;;;;;5.00;2.67;;;;;;;;;;5048682;28;20609;-58
2023/08/19 03:13:35;;;;;;;3.80;2.70;;;;;;;;;;5048579;28;20291;-59
2023/08/19 03:16:00;;;;;;;3.83;2.70;;;;;;;;;;5028708;28;20041;-57
2023/08/19 03:18:26;;;;;;;6.25;3.08;;;;;;;;;;5029454;28;20048;-59
2023/08/19 03:20:57;;;;;;;7.72;3.00;;;;;;;;;;5048335;28;20068;-57
2023/08/19 03:23:23;;;;;;;5.72;2.88;;;;;;;;;;5048731;28;20537;-58
2023/08/19 03:25:49;;;;;;;5.00;3.20;;;;;;;;;;5030935;28;20033;-58
2023/08/19 03:28:14;;;;;;;6.55;3.05;;;;;;;;;;5029072;28;20033;-58
2023/08/19 03:30:40;;;;;;;4.53;2.90;;;;;;;;;;5018217;28;20041;-58
2023/08/19 03:33:05;;;;;;;5.30;2.87;;;;;;;;;;4999052;28;20038;-57
2023/08/19 03:35:30;;;;;;;7.30;3.15;;;;;;;;;;5027939;28;20418;-58
2023/08/19 03:37:55;;;;;;;6.77;2.97;;;;;;;;;;5009965;28;20061;-58
2023/08/19 03:40:21;;;;;;;5.27;3.30;;;;;;;;;;5046016;28;20045;-58
2023/08/19 03:42:46;;;;;;;5.37;2.90;;;;;;;;;;5047838;28;20633;-59
2023/08/19 03:45:11;;;;;;;3.83;2.67;;;;;;;;;;5019481;28;20338;-58
2023/08/19 03:47:36;;;;;;;5.17;2.90;;;;;;;;;;5027847;28;20303;-58
2023/08/19 03:50:02;;;;;;;5.03;3.07;;;;;;;;;;5032535;28;20523;-58
2023/08/19 03:52:27;;;;;;;5.53;2.80;;;;;;;;;;5027792;28;20392;-58
2023/08/19 03:54:52;;;;;;;4.85;3.30;;;;;;;;;;5027592;28;20422;-60
2023/08/19 03:57:17;;;;;;;5.22;3.20;;;;;;;;;;5034340;28;20060;-57
2023/08/19 03:59:43;;;;;;;4.67;3.30;;;;;;;;;;5046063;28;20037;-57
2023/08/19 04:02:08;;;;;;;8.47;3.17;;;;;;;;;;5028632;28;20033;-58
2023/08/19 04:04:35;;;;;;;9.90;3.13;;;;;;;;;;5026102;28;20296;-57
2023/08/19 04:07:00;;;;;;;5.35;2.90;;;;;;;;;;5015911;28;20729;-57
2023/08/19 04:09:25;;;;;;;5.30;3.03;;;;;;;;;;5027846;28;20120;-59
2023/08/19 04:11:51;;;;;;;6.00;2.90;;;;;;;;;;5027852;28;20471;-58
2023/08/19 04:14:16;;;;;;;5.25;3.70;;;;;;;;;;5026957;28;20102;-59
2023/08/19 04:16:42;;;;;;;6.10;3.10;;;;;;;;;;5042079;28;20442;-59
2023/08/19 04:19:07;;;;;;;7.20;3.40;;;;;;;;;;5028498;28;20068;-59
2023/08/19 04:21:32;;;;;;;7.23;3.13;;;;;;;;;;5027622;28;20069;-58
2023/08/19 04:23:57;;;;;;;6.67;3.50;;;;;;;;;;5027762;28;20037;-58
2023/08/19 04:26:22;;;;;;;5.53;3.43;;;;;;;;;;5026945;28;20033;-59
2023/08/19 04:28:48;;;;;;;6.50;3.17;;;;;;;;;;5027839;28;20769;-59
2023/08/19 04:31:13;;;;;;;5.00;3.20;;;;;;;;;;5027406;28;20581;-58
2023/08/19 04:33:38;;;;;;;5.70;3.00;;;;;;;;;;5032349;28;20375;-58
2023/08/19 04:36:04;;;;;;;6.40;3.20;;;;;;;;;;5020194;28;20064;-58
2023/08/19 04:38:29;;;;;;;6.30;3.55;;;;;;;;;;5028604;28;20067;-58
2023/08/19 04:40:54;;;;;;;8.32;3.20;;;;;;;;;;5009547;28;20132;-59
2023/08/19 04:43:20;;;;;;;5.50;3.13;;;;;;;;;;5026836;28;20125;-58
2023/08/19 04:45:45;;;;;;;6.90;3.00;;;;;;;;;;5035234;28;20294;-58
2023/08/19 04:48:10;;;;;;;5.22;3.10;;;;;;;;;;5025750;28;20490;-57
2023/08/19 04:50:35;;;;;;;5.27;3.00;;;;;;;;;;5022093;28;20048;-58
2023/08/19 04:53:00;;;;;;;5.87;3.00;;;;;;;;;;5029584;28;20866;-57
2023/08/19 04:55:27;;;;;;;7.25;3.03;;;;;;;;;;5041244;28;20336;-58
2023/08/19 04:57:52;;;;;;;5.10;3.22;;;;;;;;;;5031340;28;20459;-58
2023/08/19 05:00:17;;;;;;;5.47;3.20;;;;;;;;;;5014732;28;20531;-59
2023/08/19 05:02:43;;;;;;;5.88;3.17;;;;;;;;;;5025868;28;20030;-59
2023/08/19 05:05:08;;;;;;;6.47;3.47;;;;;;;;;;5043803;28;20029;-58
2023/08/19 05:07:33;;;;;;;7.17;3.07;;;;;;;;;;5030974;28;20045;-58
2023/08/19 05:09:58;;;;;;;4.07;2.53;;;;;;;;;;5008007;28;20186;-59
2023/08/19 05:12:23;;;;;;;7.97;2.93;;;;;;;;;;5026268;28;20477;-59
2023/08/19 05:14:49;;;;;;;5.47;2.97;;;;;;;;;;5026305;28;20128;-58
2023/08/19 05:17:14;;;;;;;4.80;2.92;;;;;;;;;;5025767;28;20178;-59
2023/08/19 05:19:39;;;;;;;4.40;3.08;;;;;;;;;;5027389;28;20037;-58
2023/08/19 05:22:05;;;;;;;4.80;2.90;;;;;;;;;;5026074;28;20026;-58
2023/08/19 05:24:30;;;;;;;6.43;3.47;;;;;;;;;;5024247;28;20067;-59
2023/08/19 05:26:55;;;;;;;6.70;3.37;;;;;;;;;;5038569;28;20060;-58
2023/08/19 05:29:20;;;;;;;4.33;3.20;;;;;;;;;;5029566;28;20453;-59
2023/08/19 05:31:45;;;;;;;7.70;3.17;;;;;;;;;;5026219;28;20799;-58
2023/08/19 05:34:11;;;;;;;6.33;3.30;;;;;;;;;;5041224;28;20696;-59
2023/08/19 05:36:36;;;;;;;6.87;3.20;;;;;;;;;;5045481;28;20059;-59
2023/08/19 05:39:02;;;;;;;7.60;3.47;;;;;;;;;;5032448;28;20303;-59
2023/08/19 05:41:27;;;;;;;4.68;3.13;;;;;;;;;;5044654;28;20124;-59
2023/08/19 05:43:52;;;;;;;5.53;3.23;;;;;;;;;;5027879;28;20438;-59
2023/08/19 05:46:17;;;;;;;7.20;3.53;;;;;;;;;;5025824;28;20288;-58
2023/08/19 05:48:43;;;;;;;6.88;3.53;;;;;;;;;;5012225;28;20325;-57
2023/08/19 05:51:08;;;;;;;5.07;3.63;;;;;;;;;;5004739;28;20478;-58
2023/08/19 05:53:33;;;;;;;5.90;3.10;;;;;;;;;;5006092;28;20041;-58
2023/08/19 05:55:58;;;;;;;8.55;3.58;;;;;;;;;;5005391;28;20060;-59
2023/08/19 05:58:24;;;;;;;7.83;3.50;;;;;;;;;;5005262;28;20045;-58
2023/08/19 06:00:55;;;;;;;6.20;3.60;;;;;;;;;;5002847;28;20371;-58
2023/08/19 06:03:21;;;;;;;5.93;3.58;;;;;;;;;;5002813;28;21169;-58
2023/08/19 06:05:47;;;;;;;6.53;3.55;;;;;;;;;;5004329;28;20466;-59
2023/08/19 06:08:12;;;;;;;8.10;3.57;;;;;;;;;;5004672;28;20042;-59
2023/08/19 06:10:43;;;;;;;6.88;3.50;;;;;;;;;;4996953;28;20785;-58
2023/08/19 06:13:08;;;;;;;7.07;3.17;;;;;;;;;;4992529;28;20030;-58
2023/08/19 06:15:34;;;;;;;5.83;3.30;;;;;;;;;;5005094;28;20433;-58
2023/08/19 06:17:59;;;;;;;4.97;2.90;;;;;;;;;;5005991;28;20431;-58
2023/08/19 06:20:24;;;;;;;6.97;2.92;;;;;;;;;;5004434;28;20054;-58
2023/08/19 06:22:50;;;;;;;4.10;3.10;;;;;;;;;;5005155;28;20047;-58
2023/08/19 06:25:15;;;;;;;4.80;2.80;;;;;;;;;;5003102;28;20351;-58
2023/08/19 06:27:40;;;;;;;5.78;2.90;;;;;;;;;;5004450;28;20601;-59
2023/08/19 06:30:06;;;;;;;10.80;3.20;;;;;;;;;;5005045;28;20034;-58
2023/08/19 06:32:31;;;;;;;6.22;2.97;;;;;;;;;;5004872;28;20315;-59
2023/08/19 06:34:57;;;;;;;6.03;2.83;;;;;;;;;;5002179;28;20068;-58
2023/08/19 06:37:23;;;;;;;4.55;2.65;;;;;;;;;;5003736;28;20033;-58
2023/08/19 06:39:48;;;;;;;4.65;3.00;;;;;;;;;;5004505;28;20043;-58
2023/08/19 06:42:15;;;;;;;3.83;2.80;;;;;;;;;;5017544;28;20038;-59
2023/08/19 06:44:40;;;;;;;4.28;2.63;;;;;;;;;;5019997;28;20054;-58
2023/08/19 06:47:07;;;;;;;5.53;2.90;;;;;;;;;;5008647;28;20033;-57
2023/08/19 06:49:34;;;;;;;5.93;2.85;;;;;;;;;;5010889;28;20276;-58
2023/08/19 06:51:59;;;;;;;4.82;3.28;;;;;;;;;;4997994;28;20029;-59
2023/08/19 06:54:24;;;;;;;4.72;2.72;;;;;;;;;;5003023;28;20442;-59
2023/08/19 06:56:53;;;;;;;5.57;3.20;;;;;;;;;;5003667;28;20069;-59
2023/08/19 06:59:24;;;;;;;3.47;2.53;;;;;;;;;;5003343;28;20046;-58
2023/08/19 07:01:53;;;;;;;4.88;2.72;;;;;;;;;;5006839;28;20097;-58
2023/08/19 07:04:27;;;;;;;5.93;2.80;;;;;;;;;;5014415;28;20049;-59
2023/08/19 07:06:52;;;;;;;9.80;2.78;;;;;;;;;;4992717;28;20038;-58
2023/08/19 07:09:18;;;;;;;5.10;3.00;;;;;;;;;;5002386;28;20052;-59
2023/08/19 07:11:43;;;;;;;7.03;2.90;;;;;;;;;;5003015;28;20565;-58
2023/08/19 07:14:09;;;;;;;5.03;2.78;;;;;;;;;;5023066;28;20128;-59
2023/08/19 07:19:37;;;;;;;6.40;2.70;;;;;;;;;;5023185;28;20036;-59
2023/08/19 07:22:03;;;;;;;5.60;2.50;;;;;;;;;;5006176;28;20455;-58
2023/08/19 07:24:28;;;;;;;5.05;2.53;;;;;;;;;;5022360;28;20030;-59
2023/08/19 07:26:53;;;;;;;5.70;2.70;;;;;;;;;;5024473;28;20542;-58
2023/08/19 07:29:19;;;;;;;5.53;2.60;;;;;;;;;;5027136;28;20040;-58
2023/08/19 07:31:46;;;;;;;3.63;2.47;;;;;;;;;;5031876;28;20120;-58
2023/08/19 07:34:11;;;;;;;4.10;2.47;;;;;;;;;;5025994;28;20600;-58
2023/08/19 07:36:36;;;;;;;3.80;2.17;;;;;;;;;;5044232;28;20033;-58
2023/08/19 07:39:03;;;;;;;3.78;2.20;;;;;;;;;;5010731;28;20606;-59
2023/08/19 07:41:29;;;;;;;3.33;2.17;;;;;;;;;;5014043;28;20042;-59
2023/08/19 07:43:54;;;;;;;3.23;2.07;;;;;;;;;;5024343;28;20396;-58
2023/08/19 07:46:20;;;;;;;7.43;2.78;;;;;;;;;;5024318;28;20272;-59
2023/08/19 07:48:45;;;;;;;5.82;2.65;;;;;;;;;;5023390;28;20040;-58
2023/08/19 07:51:11;;;;;;;4.93;2.30;;;;;;;;;;5027112;28;20443;-58
2023/08/19 07:53:36;;;;;;;3.72;2.17;;;;;;;;;;5026923;28;20386;-59
2023/08/19 07:56:01;;;;;;;3.65;2.03;;;;;;;;;;5008732;28;20076;-58
2023/08/19 07:58:26;;;;;;;3.55;2.40;;;;;;;;;;5023823;28;20124;-59
2023/08/19 08:00:52;;;;;;;6.80;2.47;;;;;;;;;;5006922;28;20134;-58
2023/08/19 08:03:17;;;;;;;4.45;2.20;;;;;;;;;;5009002;28;20268;-58
2023/08/19 08:05:43;;;;;;;6.28;2.30;;;;;;;;;;5018509;28;20048;-57
2023/08/19 08:08:08;;;;;;;5.25;2.10;;;;;;;;;;5017534;28;20095;-58
2023/08/19 08:10:33;;;;;;;3.05;2.28;;;;;;;;;;5025243;28;20156;-59
2023/08/19 08:12:59;;;;;;;4.53;2.40;;;;;;;;;;5019681;28;20049;-58
2023/08/19 08:15:24;;;;;;;4.47;2.20;;;;;;;;;;5009074;28;20042;-58
2023/08/19 08:17:49;;;;;;;2.97;1.95;;;;;;;;;;5013377;28;20272;-60
2023/08/19 08:20:16;;;;;;;4.78;2.30;;;;;;;;;;5034579;28;20037;-59
2023/08/19 08:22:41;;;;;;;5.15;2.47;;;;;;;;;;5026264;28;20068;-60
2023/08/19 08:25:09;;;;;;;4.33;2.53;;;;;;;;;;5031409;28;20025;-60
2023/08/19 08:27:34;;;;;;;4.68;1.90;;;;;;;;;;5005244;28;20284;-60
2023/08/19 08:29:59;;;;;;;3.78;2.00;;;;;;;;;;5003745;28;20123;-60
2023/08/19 08:32:25;;;;;;;3.67;2.20;;;;;;;;;;5017667;28;20060;-59
2023/08/19 08:34:50;;;;;;;4.13;2.40;;;;;;;;;;5018177;28;20300;-59
2023/08/19 08:37:15;;;;;;;5.95;2.08;;;;;;;;;;5016444;28;20614;-59
2023/08/19 08:39:41;;;;;;;4.83;2.50;;;;;;;;;;5017357;28;20741;-59
2023/08/19 08:42:06;;;;;;;5.13;2.33;;;;;;;;;;5012356;28;20516;-60
2023/08/19 08:44:31;;;;;;;4.00;2.50;;;;;;;;;;5015295;28;20494;-59
2023/08/19 08:46:57;;;;;;;3.33;2.58;;;;;;;;;;4995555;28;20112;-59
2023/08/19 08:49:22;;;;;;;4.38;2.47;;;;;;;;;;4995562;28;20063;-60
2023/08/19 08:51:47;;;;;;;6.20;2.65;;;;;;;;;;5012415;28;20030;-60
2023/08/19 08:54:13;;;;;;;3.83;2.25;;;;;;;;;;4996172;28;20056;-60
2023/08/19 08:56:38;;;;;;;3.23;2.20;;;;;;;;;;4995738;28;20088;-60
2023/08/19 08:59:03;;;;;;;5.30;2.27;;;;;;;;;;5004719;28;20288;-61
2023/08/19 09:01:28;;;;;;;3.40;2.30;;;;;;;;;;5018114;28;20570;-58
2023/08/19 09:04:00;;;;;;;4.55;2.33;;;;;;;;;;5015893;28;20366;-59
2023/08/19 09:06:25;;;;;;;2.20;2.00;;;;;;;;;;4999600;28;20400;-61
2023/08/19 09:09:04;;;;;;;5.65;2.50;;;;;;;;;;4996142;28;20346;-59
2023/08/19 09:11:29;;;;;;;4.90;1.90;;;;;;;;;;5011166;28;20494;-59
2023/08/19 09:14:17;;;;;;;3.78;2.60;;;;;;;;;;4994729;28;20099;-59
2023/08/19 09:16:43;;;;;;;3.60;2.28;;;;;;;;;;4995850;28;20057;-59
2023/08/19 09:19:08;;;;;;;4.90;2.25;;;;;;;;;;4994414;28;20037;-58
2023/08/19 09:21:33;;;;;;;4.23;2.50;;;;;;;;;;5010243;28;20033;-60
2023/08/19 09:23:59;;;;;;;4.28;2.28;;;;;;;;;;4990060;28;20279;-61
2023/08/19 09:26:24;;;;;;;4.07;2.17;;;;;;;;;;5009150;28;20659;-60
2023/08/19 09:28:49;;;;;;;3.80;2.08;;;;;;;;;;5008426;28;20033;-60
2023/08/19 09:31:21;;;;;;;7.27;2.07;;;;;;;;;;5010317;28;20574;-61
2023/08/19 09:33:47;;;;;;;3.20;1.95;;;;;;;;;;5014522;28;20418;-59
2023/08/19 09:36:12;;;;;;;3.08;1.70;;;;;;;;;;5017862;28;20054;-59
2023/08/19 09:38:37;;;;;;;3.73;1.93;;;;;;;;;;5010877;28;20037;-60
2023/08/19 09:41:03;;;;;;;3.90;2.20;;;;;;;;;;5000583;28;20030;-70
2023/08/19 09:43:29;;;;;;;6.18;2.50;;;;;;;;;;5030913;28;20033;-59
2023/08/19 09:45:57;;;;;;;5.18;2.13;;;;;;;;;;4999286;28;20053;-60
2023/08/19 09:48:23;;;;;;;4.13;2.30;;;;;;;;;;5000119;28;20056;-60
2023/08/19 09:50:48;;;;;;;6.22;2.50;;;;;;;;;;5017727;28;20029;-60
2023/08/19 09:53:14;;;;;;;4.10;1.93;;;;;;;;;;5013776;28;20104;-59
2023/08/19 09:55:41;;;;;;;3.55;1.95;;;;;;;;;;5000388;28;20471;-59
2023/08/19 09:58:06;;;;;;;3.85;2.00;;;;;;;;;;4996433;28;20034;-60
2023/08/19 10:00:31;;;;;;;2.90;1.75;;;;;;;;;;5013417;28;20091;-60
2023/08/19 10:02:57;;;;;;;4.47;1.60;;;;;;;;;;5008640;28;20045;-68
2023/08/19 10:05:22;;;;;;;5.20;1.87;;;;;;;;;;4985921;28;20411;-58
2023/08/19 10:07:51;;;;;;;4.77;2.00;;;;;;;;;;4999829;28;20930;-58
2023/08/19 10:10:16;;;;;;;3.97;2.00;;;;;;;;;;5015511;28;20432;-58
2023/08/19 10:12:42;;;;;;;5.53;2.00;;;;;;;;;;4997098;28;20122;-57
2023/08/19 10:15:07;;;;;;;3.22;2.00;;;;;;;;;;4978106;28;20133;-58
2023/08/19 10:17:33;;;;;;;5.35;2.13;;;;;;;;;;4996996;28;20033;-57
2023/08/19 10:19:59;;;;;;;3.03;2.08;;;;;;;;;;4993423;28;20033;-58
2023/08/19 10:22:25;;;;;;;3.63;1.90;;;;;;;;;;5017715;28;20095;-58
2023/08/19 10:24:50;;;;;;;3.42;2.00;;;;;;;;;;5014264;28;20030;-57
2023/08/19 10:27:16;;;;;;;4.50;2.10;;;;;;;;;;5013094;28;20116;-57
2023/08/19 10:29:42;;;;;;;2.85;1.85;;;;;;;;;;5017996;28;20132;-56
2023/08/19 10:32:26;;;;;;;2.58;1.50;;;;;;;;;;4995343;28;20114;-56
2023/08/19 10:34:55;;;;;;;3.75;1.95;;;;;;;;;;5011259;28;20049;-57
2023/08/19 10:37:20;;;;;;;3.63;2.15;;;;;;;;;;4974391;28;20024;-57
2023/08/19 10:39:46;;;;;;;5.47;1.90;;;;;;;;;;4991924;28;20025;-56
2023/08/19 10:42:13;;;;;;;4.72;1.92;;;;;;;;;;5010974;28;20029;-59
2023/08/19 10:44:38;;;;;;;2.78;1.70;;;;;;;;;;5009776;28;20041;-56
2023/08/19 10:47:10;;;;;;;2.85;1.95;;;;;;;;;;4992493;28;20034;-56
2023/08/19 10:49:36;;;;;;;3.10;2.08;;;;;;;;;;5008810;28;20028;-57
2023/08/19 10:52:03;;;;;;;3.15;2.10;;;;;;;;;;5009409;28;20480;-58
2023/08/19 10:54:28;;;;;;;2.65;1.70;;;;;;;;;;5009967;28;20462;-57
2023/08/19 10:57:05;;;;;;;3.50;2.00;;;;;;;;;;5022578;28;20536;-56
2023/08/19 10:59:31;;;;;;;3.47;1.88;;;;;;;;;;4991266;28;20306;-56
2023/08/19 11:01:56;;;;;;;3.00;1.80;;;;;;;;;;4992723;28;20041;-58
2023/08/19 11:04:21;;;;;;;2.73;2.00;;;;;;;;;;4975691;28;20669;-57
2023/08/19 11:06:50;;;;;;;3.23;2.13;;;;;;;;;;5010659;28;20369;-57
2023/08/19 11:09:16;;;;;;;2.72;2.00;;;;;;;;;;5009462;28;20776;-57
2023/08/19 11:11:41;;;;;;;3.63;1.80;;;;;;;;;;4995909;28;20489;-59
2023/08/19 11:14:06;;;;;;;3.37;1.70;;;;;;;;;;4989706;28;20110;-58
2023/08/19 11:16:31;;;;;;;2.60;1.70;;;;;;;;;;4981827;28;20327;-57
2023/08/19 11:18:57;;;;;;;2.63;1.80;;;;;;;;;;4996834;28;20084;-58
2023/08/19 11:21:24;;;;;;;2.63;1.50;;;;;;;;;;5009027;28;21531;-58
2023/08/19 11:23:49;;;;;;;2.65;1.90;;;;;;;;;;5010694;28;20295;-58
2023/08/19 11:26:15;;;;;;;3.15;1.80;;;;;;;;;;5012987;28;20037;-58
2023/08/19 11:28:41;;;;;;;2.78;1.75;;;;;;;;;;5011849;28;20419;-56
2023/08/19 11:31:06;;;;;;;4.37;1.93;;;;;;;;;;5013080;28;20033;-58
2023/08/19 11:33:32;;;;;;;2.73;1.73;;;;;;;;;;5012383;28;20699;-58
2023/08/19 11:35:57;;;;;;;4.13;1.90;;;;;;;;;;5012417;28;20446;-58
2023/08/19 11:38:22;;;;;;;2.97;1.80;;;;;;;;;;5012617;28;20025;-57
2023/08/19 11:40:50;;;;;;;3.03;1.70;;;;;;;;;;5017003;28;20057;-57
2023/08/19 11:43:15;;;;;;;2.58;1.70;;;;;;;;;;5017252;28;20288;-57
2023/08/19 11:45:40;;;;;;;2.73;1.87;;;;;;;;;;4999919;28;20168;-56
2023/08/19 11:48:06;;;;;;;2.58;1.95;;;;;;;;;;5011598;28;20060;-57
2023/08/19 11:50:34;;;;;;;3.92;1.67;;;;;;;;;;4995956;28;20054;-58
2023/08/19 11:53:00;;;;;;;3.17;1.85;;;;;;;;;;5012032;28;20033;-57
2023/08/19 11:55:26;;;;;;;3.72;1.70;;;;;;;;;;4995463;28;20863;-57
2023/08/19 11:57:52;;;;;;;2.47;1.70;;;;;;;;;;5012362;28;20124;-57
2023/08/19 12:00:17;;;;;;;4.65;2.25;;;;;;;;;;5012549;28;20038;-59
2023/08/19 12:02:44;;;;;;;3.00;1.60;;;;;;;;;;5012628;28;20411;-58
2023/08/19 12:05:09;;;;;;;2.90;1.92;;;;;;;;;;5010105;28;20050;-59
2023/08/19 12:07:35;;;;;;;2.80;1.67;;;;;;;;;;4994354;28;20108;-60
2023/08/19 12:10:00;;;;;;;2.53;1.57;;;;;;;;;;5012733;28;20299;-58
2023/08/19 12:12:25;;;;;;;3.38;1.60;;;;;;;;;;4993371;28;20308;-57
2023/08/19 12:14:50;;;;;;;2.65;1.58;;;;;;;;;;5012288;28;20510;-57
2023/08/19 12:17:17;;;;;;;3.38;1.77;;;;;;;;;;4995448;28;20533;-58
2023/08/19 12:19:43;;;;;;;2.83;1.77;;;;;;;;;;4996330;28;20033;-62
2023/08/19 12:22:09;;;;;;;2.35;1.73;;;;;;;;;;5010480;28;20132;-57
2023/08/19 12:24:34;;;;;;;2.30;1.58;;;;;;;;;;5012605;28;20037;-57
2023/08/19 12:27:00;;;;;;;2.10;1.23;;;;;;;;;;4999089;28;20100;-58
2023/08/19 12:29:25;;;;;;;2.23;1.60;;;;;;;;;;5012220;28;20030;-57
2023/08/19 12:31:50;;;;;;;2.30;1.40;;;;;;;;;;5010713;28;20482;-56
2023/08/19 12:34:16;;;;;;;3.00;1.70;;;;;;;;;;5011894;28;20693;-56
2023/08/19 12:36:41;;;;;;;1.80;1.20;;;;;;;;;;5010451;28;20846;-56
2023/08/19 12:39:06;;;;;;;3.03;1.50;;;;;;;;;;5011135;28;20025;-57
2023/08/19 12:41:32;;;;;;;2.42;1.48;;;;;;;;;;5011740;28;20061;-57
2023/08/19 12:43:57;;;;;;;1.77;1.30;;;;;;;;;;5010975;28;20033;-59
2023/08/19 12:46:22;;;;;;;2.13;1.33;;;;;;;;;;4993084;28;20316;-57
2023/08/19 12:48:47;;;;;;;2.93;1.40;;;;;;;;;;4983712;28;20041;-58
2023/08/19 12:51:13;;;;;;;2.40;1.45;;;;;;;;;;5010019;28;20296;-57
2023/08/19 12:53:38;;;;;;;1.93;1.43;;;;;;;;;;5010427;28;20044;-58
2023/08/19 12:56:03;;;;;;;2.53;1.43;;;;;;;;;;5011244;28;20316;-57
2023/08/19 12:58:28;;;;;;;1.93;1.43;;;;;;;;;;5010888;28;20820;-58
2023/08/19 13:00:54;;;;;;;2.17;1.57;;;;;;;;;;5011026;28;20296;-56
2023/08/19 13:03:19;;;;;;;2.13;1.43;;;;;;;;;;5009805;28;20045;-57
2023/08/19 13:05:44;;;;;;;2.23;1.43;;;;;;;;;;5012261;28;20819;-57
2023/08/19 13:08:09;;;;;;;1.93;1.23;;;;;;;;;;5010605;28;20396;-57
2023/08/19 13:10:34;;;;;;;1.90;1.47;;;;;;;;;;5011914;28;20296;-57
2023/08/19 13:13:00;;;;;;;1.70;1.30;;;;;;;;;;5009367;28;20045;-57
2023/08/19 13:15:25;;;;;;;1.37;1.10;;;;;;;;;;5006527;28;20064;-57
2023/08/19 13:17:50;;;;;;;2.17;1.40;;;;;;;;;;5010237;28;20304;-58
2023/08/19 13:20:17;;;;;;;2.03;1.50;;;;;;;;;;5011169;28;20085;-57
2023/08/19 13:22:42;;;;;;;2.33;1.50;;;;;;;;;;4990107;28;20434;-57
2023/08/19 13:25:08;;;;;;;2.70;1.65;;;;;;;;;;5010869;28;20062;-57
2023/08/19 13:27:33;;;;;;;1.58;1.20;;;;;;;;;;4992824;28;20034;-57
2023/08/19 13:29:58;;;;;;;2.10;1.20;;;;;;;;;;5011105;28;20392;-57
2023/08/19 13:32:23;;;;;;;2.37;1.70;;;;;;;;;;4993953;28;20766;-57
2023/08/19 13:34:50;;;;;;;2.20;1.60;;;;;;;;;;5010878;28;20362;-57
2023/08/19 13:37:15;;;;;;;1.75;1.48;;;;;;;;;;5025670;28;20552;-57
2023/08/19 13:39:40;;;;;;;2.70;1.73;;;;;;;;;;5010464;28;20111;-57
2023/08/19 13:42:05;;;;;;;2.63;1.63;;;;;;;;;;5010084;28;20120;-57
2023/08/19 13:44:31;;;;;;;2.70;1.83;;;;;;;;;;4993660;28;20284;-57
2023/08/19 13:46:56;;;;;;;3.33;1.50;;;;;;;;;;4992188;28;20292;-57
2023/08/19 13:49:22;;;;;;;12.80;2.17;;;;;;;;;;4991480;28;20096;-57
2023/08/19 13:51:47;;;;;;;3.05;1.52;;;;;;;;;;4993358;28;20030;-57
2023/08/19 13:54:13;;;;;;;3.75;1.50;;;;;;;;;;4987577;28;20145;-57
2023/08/19 13:56:40;;;;;;;3.22;1.50;;;;;;;;;;5006787;28;20462;-56
2023/08/19 13:59:05;;;;;;;2.40;1.65;;;;;;;;;;5007407;28;20171;-58
2023/08/19 14:01:31;;;;;;;2.08;1.63;;;;;;;;;;5010080;28;20519;-58
2023/08/19 14:03:56;;;;;;;2.90;1.60;;;;;;;;;;5023162;28;20103;-58
2023/08/19 14:06:21;;;;;;;2.57;1.60;;;;;;;;;;5018740;28;20046;-57
2023/08/19 14:08:46;;;;;;;3.53;1.80;;;;;;;;;;5016705;28;20030;-58
2023/08/19 14:11:12;;;;;;;2.83;1.40;;;;;;;;;;5017761;28;20802;-58
2023/08/19 14:13:37;;;;;;;4.63;1.75;;;;;;;;;;5016160;28;20475;-59
2023/08/19 14:16:03;;;;;;;3.17;1.48;;;;;;;;;;5014143;28;20146;-58
2023/08/19 14:18:28;;;;;;;3.92;1.70;;;;;;;;;;5016609;28;20049;-56
2023/08/19 14:20:53;;;;;;;1.97;1.43;;;;;;;;;;5019902;28;20033;-57
2023/08/19 14:23:18;;;;;;;3.07;1.50;;;;;;;;;;5014918;28;20694;-57
2023/08/19 14:25:44;;;;;;;3.20;1.50;;;;;;;;;;5013554;28;20288;-57
2023/08/19 14:28:09;;;;;;;2.50;1.77;;;;;;;;;;4993577;28;20938;-56
2023/08/19 14:30:35;;;;;;;3.20;1.67;;;;;;;;;;5011735;28;20607;-57
2023/08/19 14:33:01;;;;;;;2.53;1.60;;;;;;;;;;5002708;28;20364;-57
2023/08/19 14:35:26;;;;;;;2.13;1.70;;;;;;;;;;4996487;28;20057;-57
2023/08/19 14:37:51;;;;;;;4.57;1.50;;;;;;;;;;5015478;28;20275;-58